Time;durP1;ratioP1;P1;durP2;ratioP2;P2;SDS_P1;SDS_P2;PMS_P1;PMS_P2;Temp;Humidity;BMP_temperature;BMP_pressure;BME280_temperature;BME280_humidity;BME280_pressure;Samples;Min_cycle;Max_cycle;Signal;HPM_P1;HPM_P2
2021/06/27 00:01:27;;;;;;;8.78;5.90;;;;;;;21.08;73.96;94455.83;834908;71;32687;-81
2021/06/27 00:16:16;;;;;;;8.33;5.58;;;;;;;21.06;74.03;94465.31;794369;74;29779;-83
2021/06/27 00:31:34;;;;;;;7.78;5.42;;;;;;;21.06;74.19;94441.30;834100;71;33375;-85
2021/06/27 00:46:17;;;;;;;8.88;5.75;;;;;;;20.96;73.00;94438.66;834055;71;32750;-82
2021/06/27 01:01:16;;;;;;;8.33;5.30;;;;;;;20.85;72.79;94433.72;827758;71;32775;-82
2021/06/27 01:16:33;;;;;;;;;;;;;;;;;;;;;
2021/06/27 01:31:16;;;;;;;7.83;5.10;;;;;;;20.08;75.45;94398.74;827505;71;33172;-80
2021/06/27 01:46:13;;;;;;;7.80;5.25;;;;;;;20.11;74.61;94391.94;829688;71;32630;-83
2021/06/27 02:01:31;;;;;;;7.55;5.92;;;;;;;20.13;75.71;94409.13;834197;71;32763;-80
2021/06/27 02:16:23;;;;;;;7.87;5.15;;;;;;;20.07;75.35;94393.19;834115;71;32703;-86
2021/06/27 02:31:31;;;;;;;10.70;5.35;;;;;;;20.01;74.83;94387.39;828592;71;33708;-86
2021/06/27 03:46:14;;;;;;;7.60;5.20;;;;;;;20.95;72.05;94428.55;834374;71;32631;-82
2021/06/27 04:01:21;;;;;;;12.20;7.55;;;;;;;20.41;74.91;94438.20;827820;71;33247;-82
2021/06/27 04:31:52;;;;;;;12.70;6.97;;;;;;;21.40;72.92;94447.58;800679;74;33295;-82
2021/06/27 05:01:15;;;;;;;9.60;7.13;;;;;;;23.74;66.07;94461.73;793869;74;33329;-82
2021/06/27 05:16:21;;;;;;;10.17;6.97;;;;;;;24.13;64.85;94471.98;828865;71;31983;-81
2021/06/27 05:31:14;;;;;;;8.60;7.10;;;;;;;25.89;61.28;94452.98;820955;71;32819;-80
2021/06/27 05:46:18;;;;;;;9.40;5.53;;;;;;;26.44;57.62;94467.06;834264;71;32845;-85
2021/06/27 06:01:08;;;;;;;14.47;6.33;;;;;;;;;;822044;71;30120;-75
2021/06/27 06:16:09;;;;;;;12.50;6.50;;;;;;;27.76;55.14;94470.94;824352;71;29761;-77
2021/06/27 06:31:10;;;;;;;6.20;4.73;;;;;;;27.91;54.70;94471.01;828143;71;30306;-77
2021/06/27 06:46:09;;;;;;;8.50;4.83;;;;;;;28.26;53.20;94463.70;828400;71;29756;-75
2021/06/27 07:01:08;;;;;;;4.90;4.40;;;;;;;29.10;51.74;94466.96;828290;71;30125;-77
2021/06/27 07:16:15;;;;;;;7.23;4.80;;;;;;;29.99;49.17;94477.01;827716;71;32788;-77
2021/06/27 07:31:14;;;;;;;6.20;4.77;;;;;;;30.68;47.29;94471.86;827857;71;32663;-76
2021/06/27 07:46:14;;;;;;;5.73;5.03;;;;;;;31.27;46.16;94468.88;821551;71;32756;-78
2021/06/27 08:01:08;;;;;;;5.47;4.80;;;;;;;31.36;43.56;94466.92;828305;71;29670;-77
2021/06/27 08:16:18;;;;;;;7.67;5.40;;;;;;;31.72;41.24;94466.87;821262;71;33616;-75
2021/06/27 08:31:14;;;;;;;6.90;5.10;;;;;;;30.70;42.52;94461.37;823753;71;32851;-77
2021/06/27 08:46:14;;;;;;;6.30;5.20;;;;;;;31.43;40.03;94459.99;825026;71;31953;-81
2021/06/27 09:16:20;;;;;;;7.50;5.63;;;;;;;31.93;39.12;94441.12;827314;71;30212;-82
2021/06/27 09:31:36;;;;;;;7.33;6.00;;;;;;;32.45;37.23;94434.56;820735;71;32910;-81
2021/06/27 09:46:14;;;;;;;6.53;5.93;;;;;;;31.61;38.71;94431.11;822104;71;30119;-82
2021/06/27 10:01:22;;;;;;;6.80;6.07;;;;;;;31.72;38.82;94418.62;821378;71;33226;-81
2021/06/27 10:16:15;;;;;;;6.27;5.67;;;;;;;32.63;38.18;94415.82;828365;71;30742;-82
2021/06/27 10:31:15;;;;;;;5.83;5.30;;;;;;;33.23;37.46;94407.03;820402;71;32817;-82
2021/06/27 10:46:10;;;;;;;5.83;5.33;;;;;;;33.46;37.14;94403.81;828809;71;29755;-83
2021/06/27 11:01:11;;;;;;;6.73;5.70;;;;;;;33.63;35.69;94401.11;829682;71;29710;-82
2021/06/27 11:16:11;;;;;;;6.17;5.60;;;;;;;32.98;36.98;94394.20;828127;70;29776;-84
2021/06/27 11:31:27;;;;;;;6.07;5.30;;;;;;;33.08;37.15;94381.47;828491;71;29691;-80
2021/06/27 11:46:32;;;;;;;7.63;5.30;;;;;;;33.33;35.97;94373.89;827735;71;32637;-75
2021/06/27 12:01:15;;;;;;;6.03;5.33;;;;;;;32.87;38.23;94370.67;829174;71;32724;-78
2021/06/27 12:16:10;;;;;;;6.93;5.67;;;;;;;32.40;39.02;94355.72;834241;71;29449;-76
2021/06/27 12:31:19;;;;;;;7.83;6.10;;;;;;;31.81;41.00;94357.69;828915;71;33077;-77
2021/06/27 12:46:33;;;;;;;7.50;6.63;;;;;;;31.97;39.67;94346.63;834142;71;33292;-80
2021/06/27 13:02:00;;;;;;;6.80;6.10;;;;;;;31.61;40.23;94347.00;828442;71;31442;-74
2021/06/27 13:16:16;;;;;;;9.70;7.07;;;;;;;30.90;41.01;94357.02;833973;71;30064;-78
2021/06/27 13:31:26;;;;;;;7.00;6.20;;;;;;;30.16;42.90;94375.75;834194;71;31133;-79
2021/06/27 13:46:15;;;;;;;7.20;6.53;;;;;;;30.09;43.28;94371.84;827698;71;32678;-76
2021/06/27 14:16:19;;;;;;;7.03;6.53;;;;;;;30.27;41.13;94353.11;827967;71;32692;-77
2021/06/27 14:31:33;;;;;;;6.37;5.77;;;;;;;30.61;38.96;94354.16;794681;74;33373;-79
2021/06/27 14:46:16;;;;;;;6.30;5.80;;;;;;;30.92;37.17;94347.88;827831;71;32686;-76
2021/06/27 15:16:08;;;;;;;6.43;5.93;;;;;;;30.66;38.88;94352.31;834548;71;30192;-75
2021/06/27 15:31:08;;;;;;;6.50;5.93;;;;;;;30.70;38.30;94365.78;828671;71;29709;-76
2021/06/27 15:46:11;;;;;;;6.80;6.30;;;;;;;30.75;37.74;94359.85;834328;71;30274;-78
2021/06/27 16:01:14;;;;;;;8.60;7.90;;;;;;;30.67;36.70;94372.03;827475;71;33450;-77
2021/06/27 16:16:13;;;;;;;7.67;7.00;;;;;;;30.40;36.78;94384.42;828415;71;29770;-75
2021/06/27 16:31:27;;;;;;;7.57;6.97;;;;;;;30.12;37.41;94400.77;827832;71;33135;-76
2021/06/27 16:46:10;;;;;;;8.57;7.77;;;;;;;29.84;37.82;94424.31;829608;71;30157;-77
2021/06/27 17:01:08;;;;;;;7.50;6.80;;;;;;;29.30;42.68;94446.79;828414;71;29747;-78
2021/06/27 17:02:12;;;;;;;7.43;6.83;;;;;;;29.23;42.77;94448.27;808702;73;26935;-78
2021/06/27 17:16:14;;;;;;;7.10;6.40;;;;;;;28.81;43.26;94455.17;827555;71;32685;-79
2021/06/27 17:31:10;;;;;;;8.63;6.53;;;;;;;28.02;45.02;94470.14;828260;71;30271;-78
2021/06/27 17:46:15;;;;;;;6.70;6.10;;;;;;;27.55;45.94;94475.91;823223;71;32756;-77
2021/06/27 18:01:09;;;;;;;7.33;6.13;;;;;;;27.11;47.79;94489.47;828315;71;30356;-77
2021/06/27 18:16:14;;;;;;;7.43;6.70;;;;;;;26.69;48.18;94514.13;834703;71;32770;-76
2021/06/27 18:31:08;;;;;;;8.40;7.60;;;;;;;;;;828509;71;29719;-81
2021/06/27 18:46:16;;;;;;;9.77;8.93;;;;;;;26.47;51.38;94550.48;834013;71;32716;-79
2021/06/27 19:01:11;;;;;;;9.20;8.30;;;;;;;26.16;52.84;94570.92;834030;71;30269;-76
2021/06/27 19:16:14;;;;;;;10.53;7.50;;;;;;;26.24;53.15;76856.61;828075;71;32669;-78
2021/06/27 19:31:08;;;;;;;9.33;7.70;;;;;;;26.48;54.21;94560.67;828344;71;29695;-77
2021/06/27 19:46:13;;;;;;;9.47;8.57;;;;;;;26.16;53.03;94575.72;820430;71;32174;-77
2021/06/27 20:01:09;;;;;;;10.07;7.17;;;;;;;;;;826265;71;30315;-76
2021/06/27 20:16:14;;;;;;;9.40;8.50;;;;;;;;;;821125;71;32876;-75
2021/06/27 20:31:22;;;;;;;9.00;8.30;;;;;;;25.72;54.58;94575.49;829020;71;32864;-77
2021/06/27 20:46:08;;;;;;;9.50;8.50;;;;;;;25.44;53.85;94573.53;829124;71;29755;-78
2021/06/27 21:16:09;;;;;;;8.80;7.90;;;;;;;26.10;53.38;94581.88;813539;71;30322;-80
2021/06/27 21:31:15;;;;;;;8.90;8.13;;;;;;;26.37;52.72;94596.44;827820;71;32673;-77
2021/06/27 21:46:10;;;;;;;8.13;7.43;;;;;;;26.37;51.53;94601.83;819331;71;30961;-79
2021/06/27 22:01:15;;;;;;;8.37;7.57;;;;;;;26.34;50.92;94603.20;822486;71;33168;-79
2021/06/27 22:16:15;;;;;;;8.20;7.40;;;;;;;26.35;50.86;94610.10;823140;71;32665;-78
2021/06/27 22:31:08;;;;;;;8.33;7.53;;;;;;;26.29;51.35;94612.41;820040;71;29810;-78
2021/06/27 22:46:15;;;;;;;8.00;7.30;;;;;;;26.26;51.82;165592.38;827897;71;32817;-77
2021/06/27 23:01:08;;;;;;;8.00;7.40;;;;;;;;;;834268;71;30439;-78
2021/06/27 23:16:14;;;;;;;8.23;7.50;;;;;;;26.12;51.65;94623.95;827629;71;33229;-77
2021/06/27 23:31:14;;;;;;;8.40;7.57;;;;;;;26.00;51.74;94618.96;828069;71;32690;-78
2021/06/27 23:46:15;;;;;;;8.43;7.50;;;;;;;25.84;52.00;94625.44;835225;71;32770;-79
